Time;durP1;ratioP1;P1;durP2;ratioP2;P2;SDS_P1;SDS_P2;PMS_P1;PMS_P2;Temp;Humidity;BMP_temperature;BMP_pressure;BME280_temperature;BME280_humidity;BME280_pressure;Samples;Min_cycle;Max_cycle;Signal;HPM_P1;HPM_P2
2021/08/24 00:00:31;;;;;;;6.18;2.58;;;;;;;14.51;88.98;101305.38;5021019;28;20496;-76
2021/08/24 00:02:58;;;;;;;5.80;2.17;;;;;;;14.59;88.08;101308.00;5014294;28;20045;-76
2021/08/24 00:05:26;;;;;;;8.80;2.63;;;;;;;14.60;88.02;101310.66;5013339;28;20046;-76
2021/08/24 00:07:56;;;;;;;6.43;2.78;;;;;;;14.61;87.96;101308.88;5016472;28;20052;-76
2021/08/24 00:10:22;;;;;;;6.25;2.35;;;;;;;14.63;87.69;101309.75;5014629;28;20050;-76
2021/08/24 00:12:47;;;;;;;6.72;2.20;;;;;;;14.65;87.94;101313.28;5014608;28;20038;-76
2021/08/24 00:15:13;;;;;;;6.00;2.40;;;;;;;14.65;87.90;101310.63;5014362;28;20048;-76
2021/08/24 00:17:39;;;;;;;7.93;2.42;;;;;;;14.68;88.12;101306.13;5029947;28;20049;-76
2021/08/24 00:20:05;;;;;;;7.63;2.50;;;;;;;14.63;88.03;101307.97;5014594;28;20061;-76
2021/08/24 00:22:30;;;;;;;6.45;2.53;;;;;;;14.69;87.63;101307.88;5014481;28;20080;-76
2021/08/24 00:24:55;;;;;;;9.35;2.55;;;;;;;14.67;87.45;101307.03;5014531;28;20439;-76
2021/08/24 00:27:21;;;;;;;7.03;2.50;;;;;;;14.69;87.47;101313.19;5014158;28;20508;-76
2021/08/24 00:29:46;;;;;;;5.88;2.10;;;;;;;14.67;87.42;101315.00;5014355;28;20044;-76
2021/08/24 00:32:11;;;;;;;5.50;2.28;;;;;;;14.69;87.50;101312.31;5014456;28;20516;-75
2021/08/24 00:34:37;;;;;;;7.72;2.13;;;;;;;14.69;87.50;101317.63;5015479;28;20508;-76
2021/08/24 00:37:02;;;;;;;5.82;2.22;;;;;;;14.65;87.43;101316.81;5015010;28;20045;-76
2021/08/24 00:39:28;;;;;;;7.72;2.30;;;;;;;14.65;87.44;101322.13;5014964;28;20423;-75
2021/08/24 00:41:53;;;;;;;6.45;2.78;;;;;;;14.64;87.33;101314.16;5013907;28;20040;-76
2021/08/24 00:44:18;;;;;;;5.32;2.03;;;;;;;14.62;87.62;101321.28;5013508;28;20030;-76
2021/08/24 00:46:47;;;;;;;4.85;1.60;;;;;;;14.58;87.52;101325.72;5013450;28;20041;-76
2021/08/24 00:49:19;;;;;;;10.90;2.72;;;;;;;14.55;87.49;101319.56;5009217;28;20037;-76
2021/08/24 00:51:53;;;;;;;5.90;2.67;;;;;;;14.55;87.57;101328.41;5011443;28;20404;-76
2021/08/24 00:54:23;;;;;;;5.90;2.47;;;;;;;14.47;88.28;101322.25;5015267;28;20048;-76
2021/08/24 00:56:53;;;;;;;4.03;1.77;;;;;;;14.60;87.72;101329.25;5014313;28;20077;-76
2021/08/24 00:59:19;;;;;;;8.43;2.05;;;;;;;14.56;87.52;101329.28;5014335;28;20061;-76
2021/08/24 01:01:46;;;;;;;4.95;1.98;;;;;;;14.61;87.47;101330.13;5014409;28;20543;-76
2021/08/24 01:04:12;;;;;;;4.82;2.20;;;;;;;14.61;87.59;101336.31;5014383;28;20488;-76
2021/08/24 01:06:57;;;;;;;4.93;2.15;;;;;;;14.64;86.95;101340.72;5013365;28;20048;-76
2021/08/24 01:09:46;;;;;;;4.68;2.00;;;;;;;14.58;86.90;101335.47;5011585;28;20044;-76
2021/08/24 01:12:24;;;;;;;10.02;2.47;;;;;;;14.51;87.01;101342.56;5025520;28;20038;-76
2021/08/24 01:15:05;;;;;;;5.60;1.92;;;;;;;14.57;86.96;101339.03;5010594;28;20049;-76
2021/08/24 01:17:46;;;;;;;6.80;3.00;;;;;;;14.57;86.82;101336.38;5013596;28;20172;-76
2021/08/24 01:20:46;;;;;;;6.50;2.20;;;;;;;14.52;87.05;101331.06;5008373;28;20042;-76
2021/08/24 01:23:29;;;;;;;7.47;1.90;;;;;;;14.53;86.59;101335.50;5000160;28;20061;-76
2021/08/24 01:26:04;;;;;;;5.50;1.83;;;;;;;14.54;86.65;101341.69;5011609;28;20041;-76
2021/08/24 01:28:48;;;;;;;5.72;1.63;;;;;;;14.47;86.84;101344.38;5013412;28;20128;-76
2021/08/24 01:31:42;;;;;;;7.53;2.17;;;;;;;14.54;86.68;101347.00;5029058;28;20117;-76
2021/08/24 01:34:07;;;;;;;3.42;1.70;;;;;;;14.51;86.66;101350.53;5028377;28;20440;-76
2021/08/24 01:36:51;;;;;;;4.55;1.60;;;;;;;14.50;86.44;101348.78;5013229;28;20061;-76
2021/08/24 01:39:27;;;;;;;6.32;1.80;;;;;;;14.53;86.78;101347.91;5010862;28;20141;-76
2021/08/24 01:42:08;;;;;;;7.13;2.35;;;;;;;14.58;85.90;101346.97;5013524;28;20034;-76
2021/08/24 01:44:43;;;;;;;6.35;1.75;;;;;;;14.56;86.47;101350.53;5013516;28;20518;-76
2021/08/24 01:47:23;;;;;;;4.10;1.65;;;;;;;14.58;85.60;101357.59;5009381;28;20038;-76
2021/08/24 01:50:08;;;;;;;4.03;1.95;;;;;;;14.51;85.90;101349.66;5010659;28;20067;-76
2021/08/24 01:52:41;;;;;;;6.10;2.08;;;;;;;14.46;86.54;101341.72;5013304;28;20041;-77
2021/08/24 01:55:13;;;;;;;6.88;1.83;;;;;;;14.41;86.07;101348.91;5013229;28;20092;-76
2021/08/24 01:57:50;;;;;;;5.00;1.65;;;;;;;14.47;85.92;101352.34;5008379;28;20095;-76
2021/08/24 02:00:16;;;;;;;6.18;1.83;;;;;;;14.45;86.05;101356.78;5010685;28;20065;-76
2021/08/24 02:02:48;;;;;;;4.15;1.65;;;;;;;14.43;85.94;101360.34;5015977;28;20029;-76
2021/08/24 02:05:21;;;;;;;9.35;2.58;;;;;;;14.38;86.33;101357.75;5010025;28;20034;-77
2021/08/24 02:07:52;;;;;;;5.68;2.03;;;;;;;14.44;86.14;101352.38;5013138;28;20087;-76
2021/08/24 02:10:23;;;;;;;5.30;2.40;;;;;;;14.54;85.95;101350.56;5009049;28;20092;-76
2021/08/24 02:12:51;;;;;;;6.00;1.83;;;;;;;14.51;86.19;101355.84;5012946;28;20037;-76
2021/08/24 02:15:21;;;;;;;2.90;1.27;;;;;;;14.52;86.11;101352.31;5012389;28;20285;-76
2021/08/24 02:17:47;;;;;;;5.40;2.08;;;;;;;14.45;85.92;101354.13;5012372;28;20385;-76
2021/08/24 02:20:19;;;;;;;4.18;1.70;;;;;;;14.57;85.66;101354.97;5012847;28;20065;-76
2021/08/24 02:22:50;;;;;;;6.35;1.80;;;;;;;14.52;85.43;101356.75;5018232;28;20088;-76
2021/08/24 02:25:20;;;;;;;5.47;1.80;;;;;;;14.55;85.67;101356.75;5018538;28;20093;-76
2021/08/24 02:28:01;;;;;;;5.60;1.95;;;;;;;14.51;84.85;101355.84;5017628;28;20034;-76
2021/08/24 02:30:29;;;;;;;5.10;1.70;;;;;;;14.53;84.58;101354.09;5013889;28;20045;-75
2021/08/24 02:32:56;;;;;;;7.22;1.70;;;;;;;14.57;84.58;101369.13;5014302;28;20120;-76
2021/08/24 02:35:34;;;;;;;5.70;1.80;;;;;;;14.57;84.56;101355.84;5014447;28;20052;-76
2021/08/24 02:38:05;;;;;;;5.88;1.90;;;;;;;14.61;84.47;101368.19;5014957;28;20548;-76
2021/08/24 02:40:33;;;;;;;4.90;2.03;;;;;;;14.61;83.89;101362.00;5015029;28;20036;-75
2021/08/24 02:43:17;;;;;;;5.45;2.17;;;;;;;14.50;84.66;101362.06;5014536;28;20124;-76
2021/08/24 02:46:05;;;;;;;5.82;1.58;;;;;;;14.52;84.34;101359.41;5011698;28;20069;-76
2021/08/24 02:48:33;;;;;;;4.45;1.70;;;;;;;14.55;83.95;101362.06;5014670;28;20504;-76
2021/08/24 02:50:59;;;;;;;6.20;1.80;;;;;;;14.50;84.29;101358.53;5014776;28;20057;-76
2021/08/24 02:53:25;;;;;;;5.65;1.80;;;;;;;14.47;84.56;101355.00;5013344;28;20018;-76
2021/08/24 02:55:51;;;;;;;7.55;1.90;;;;;;;14.50;84.32;101353.22;5012935;28;20041;-75
2021/08/24 02:58:17;;;;;;;6.47;1.80;;;;;;;14.52;84.34;101362.06;5015267;28;20034;-75
2021/08/24 03:00:43;;;;;;;5.47;1.70;;;;;;;14.50;84.14;101363.84;5013080;28;20036;-76
2021/08/24 03:03:09;;;;;;;3.72;1.42;;;;;;;14.44;83.81;101360.34;5015179;28;20109;-75
2021/08/24 03:05:35;;;;;;;3.45;1.67;;;;;;;14.48;84.41;101366.50;5012416;28;20489;-76
2021/08/24 03:08:01;;;;;;;4.15;1.52;;;;;;;14.56;84.18;101374.44;5011080;28;20096;-76
2021/08/24 03:10:30;;;;;;;6.40;1.80;;;;;;;14.51;83.40;101362.94;5012557;28;20038;-76
2021/08/24 03:13:25;;;;;;;5.07;2.00;;;;;;;14.50;84.09;101367.38;5012407;28;20042;-76
2021/08/24 03:15:58;;;;;;;5.97;1.88;;;;;;;14.58;83.78;101367.34;5010104;28;20042;-76
2021/08/24 03:18:29;;;;;;;4.03;1.40;;;;;;;14.57;83.63;101373.56;5011318;28;20036;-76
2021/08/24 03:20:59;;;;;;;5.70;1.60;;;;;;;14.63;83.49;101370.84;5012766;28;20121;-76
2021/08/24 03:23:26;;;;;;;3.45;1.50;;;;;;;14.63;83.30;101376.16;5011352;28;20089;-76
2021/08/24 03:25:53;;;;;;;4.30;1.80;;;;;;;14.60;83.20;101381.50;5012322;28;20130;-76
2021/08/24 03:28:21;;;;;;;5.55;1.38;;;;;;;14.52;83.09;101378.00;5008669;28;20038;-76
2021/08/24 03:30:48;;;;;;;3.63;1.58;;;;;;;14.54;83.26;101386.84;5003467;28;20042;-76
2021/08/24 03:33:16;;;;;;;4.07;1.45;;;;;;;14.48;83.43;101383.31;5011434;28;20092;-76
2021/08/24 03:35:41;;;;;;;4.60;1.52;;;;;;;14.44;83.63;101389.56;5011996;28;20034;-76
2021/08/24 03:38:07;;;;;;;6.18;1.55;;;;;;;14.41;83.68;101386.94;5012681;28;20034;-76
2021/08/24 03:40:33;;;;;;;4.10;1.27;;;;;;;14.39;83.95;101386.06;5015827;28;20511;-76
2021/08/24 03:42:58;;;;;;;6.25;1.60;;;;;;;14.37;83.82;101387.84;5015672;28;20381;-76
2021/08/24 03:45:24;;;;;;;4.93;1.58;;;;;;;14.33;84.03;101388.78;5017247;28;20113;-76
2021/08/24 03:47:50;;;;;;;2.92;1.40;;;;;;;14.34;84.11;101390.53;5017670;28;20033;-76
2021/08/24 03:50:15;;;;;;;6.72;1.42;;;;;;;14.30;83.99;101398.53;5017676;28;20366;-76
2021/08/24 03:52:40;;;;;;;4.70;1.45;;;;;;;14.32;83.81;101392.31;5016321;28;20033;-76
2021/08/24 03:55:06;;;;;;;5.65;1.63;;;;;;;14.22;84.19;101398.59;5015253;28;20065;-75
2021/08/24 03:57:32;;;;;;;6.80;1.70;;;;;;;14.22;84.16;101402.13;5014907;28;20073;-76
2021/08/24 03:59:57;;;;;;;5.72;1.60;;;;;;;14.19;84.33;101398.63;5015203;28;20021;-76
2021/08/24 04:02:24;;;;;;;3.78;1.42;;;;;;;14.15;84.38;101404.84;5015284;28;20454;-76
2021/08/24 04:04:49;;;;;;;4.57;1.63;;;;;;;14.07;84.66;101406.66;5016579;28;20080;-76
2021/08/24 04:07:15;;;;;;;6.18;2.03;;;;;;;13.98;85.17;101413.78;5014152;28;20480;-76
2021/08/24 04:09:40;;;;;;;3.90;1.67;;;;;;;13.96;85.17;101415.59;5013983;28;20256;-76
2021/08/24 04:12:07;;;;;;;4.07;1.38;;;;;;;13.87;85.30;101409.44;5009451;28;20038;-76
2021/08/24 04:14:32;;;;;;;4.03;1.60;;;;;;;13.79;85.46;101417.44;5014349;28;20088;-75
2021/08/24 04:16:57;;;;;;;6.63;1.92;;;;;;;13.66;86.00;101418.41;5012774;28;20033;-75
2021/08/24 04:19:23;;;;;;;4.45;1.58;;;;;;;13.58;86.34;101424.63;5013636;28;20101;-76
2021/08/24 04:21:48;;;;;;;4.15;1.70;;;;;;;13.53;86.12;101426.41;5013500;28;20041;-74
2021/08/24 04:24:14;;;;;;;5.57;1.48;;;;;;;13.45;86.56;101436.16;5013331;28;20069;-76
2021/08/24 04:26:39;;;;;;;4.75;1.52;;;;;;;13.38;86.91;101431.75;5009424;28;20475;-76
2021/08/24 04:29:05;;;;;;;4.40;1.63;;;;;;;13.36;86.67;101436.19;5012444;28;20042;-74
2021/08/24 04:31:32;;;;;;;3.78;1.40;;;;;;;13.33;87.30;101444.16;5004146;28;20037;-76
2021/08/24 04:33:58;;;;;;;4.72;1.50;;;;;;;13.29;87.62;101445.06;5013143;28;20064;-76
2021/08/24 04:36:24;;;;;;;3.83;1.48;;;;;;;13.31;87.23;101441.50;5012549;28;20069;-76
2021/08/24 04:38:49;;;;;;;5.57;1.92;;;;;;;13.37;87.34;101448.56;5025352;28;20038;-76
2021/08/24 04:41:15;;;;;;;3.47;1.48;;;;;;;13.44;87.00;101449.41;5003433;28;20062;-75
2021/08/24 04:43:40;;;;;;;6.05;1.60;;;;;;;13.46;86.57;101445.00;5012990;28;20453;-76
2021/08/24 04:46:06;;;;;;;5.05;1.58;;;;;;;13.49;86.08;101445.88;5006702;28;20065;-76
2021/08/24 04:48:32;;;;;;;6.13;1.80;;;;;;;13.46;86.85;101443.22;5013281;28;20044;-76
2021/08/24 04:50:57;;;;;;;5.32;1.60;;;;;;;13.49;85.83;101451.19;5003846;28;20041;-76
2021/08/24 04:53:24;;;;;;;7.40;2.50;;;;;;;13.46;86.22;101453.81;5010649;28;20034;-76
2021/08/24 04:55:50;;;;;;;4.45;1.50;;;;;;;13.46;86.20;101450.28;5010882;28;20121;-76
2021/08/24 04:58:15;;;;;;;6.25;1.92;;;;;;;13.43;85.94;101451.19;5008975;28;20105;-76
2021/08/24 05:00:40;;;;;;;6.93;1.85;;;;;;;13.43;86.50;101464.44;5011833;28;20488;-76
2021/08/24 05:03:06;;;;;;;5.95;1.98;;;;;;;13.46;86.28;101467.09;5012997;28;20030;-76
2021/08/24 05:05:32;;;;;;;4.10;1.77;;;;;;;13.51;86.44;101464.44;5006705;28;20534;-76
2021/08/24 05:07:58;;;;;;;6.07;2.47;;;;;;;13.53;86.14;101463.53;5009279;28;20492;-76
2021/08/24 05:10:23;;;;;;;6.18;2.35;;;;;;;13.55;86.05;101466.19;5008810;28;20500;-75
2021/08/24 05:12:49;;;;;;;3.83;1.55;;;;;;;13.64;86.16;101474.09;5010180;28;20141;-76
2021/08/24 05:15:14;;;;;;;5.03;2.03;;;;;;;13.68;85.37;101475.00;5008247;28;20042;-76
2021/08/24 05:17:40;;;;;;;5.20;1.75;;;;;;;13.74;85.85;101467.00;5010536;28;20033;-76
2021/08/24 05:20:06;;;;;;;5.00;1.60;;;;;;;13.82;84.98;101475.81;5012379;28;20049;-76
2021/08/24 05:22:32;;;;;;;4.95;1.73;;;;;;;13.90;84.21;101473.13;5027732;28;20111;-75
2021/08/24 05:24:58;;;;;;;4.50;1.90;;;;;;;14.00;84.49;101474.84;5011306;28;20125;-75
2021/08/24 05:27:23;;;;;;;5.15;1.67;;;;;;;14.15;84.60;101474.75;5009878;28;20109;-76
2021/08/24 05:29:49;;;;;;;8.40;1.58;;;;;;;14.38;83.26;101477.28;5012295;28;20117;-76
2021/08/24 05:32:14;;;;;;;4.00;1.75;;;;;;;14.54;82.40;101482.47;5008747;28;20041;-76
2021/08/24 05:34:40;;;;;;;6.38;2.20;;;;;;;14.51;81.44;101488.66;5012338;28;20036;-76
2021/08/24 05:37:06;;;;;;;4.72;2.20;;;;;;;14.53;81.91;101492.22;5011955;28;20042;-76
2021/08/24 05:39:33;;;;;;;3.53;1.60;;;;;;;14.72;81.60;101498.28;5008198;28;20056;-76
2021/08/24 05:41:59;;;;;;;6.68;1.90;;;;;;;14.78;81.44;101497.38;5012213;28;20042;-75
2021/08/24 05:44:24;;;;;;;9.77;2.00;;;;;;;14.81;81.66;101503.53;5012108;28;20476;-75
2021/08/24 05:46:49;;;;;;;4.55;1.80;;;;;;;14.71;80.78;101501.84;5011849;28;20041;-76
2021/08/24 05:49:15;;;;;;;6.85;1.80;;;;;;;14.55;81.06;101500.19;5011966;28;20045;-76
2021/08/24 05:51:40;;;;;;;6.45;1.67;;;;;;;14.66;80.95;101504.53;5007977;28;20034;-75
2021/08/24 05:54:06;;;;;;;6.75;2.28;;;;;;;14.70;81.74;101508.06;5012068;28;20504;-76
2021/08/24 05:56:32;;;;;;;8.25;1.75;;;;;;;14.86;80.60;101507.03;5006456;28;20087;-76
2021/08/24 05:58:57;;;;;;;4.63;1.77;;;;;;;14.88;80.50;101504.34;5011860;28;20412;-76
2021/08/24 06:01:26;;;;;;;3.42;1.67;;;;;;;14.80;80.04;101511.50;5016224;28;20116;-76
2021/08/24 06:03:52;;;;;;;4.57;1.90;;;;;;;14.88;80.53;101515.88;5011648;28;20091;-76
2021/08/24 06:06:47;;;;;;;6.22;1.63;;;;;;;15.09;79.98;101513.91;5011443;28;20037;-75
2021/08/24 06:09:13;;;;;;;4.57;1.70;;;;;;;15.14;79.20;101512.09;5018127;28;20050;-76
2021/08/24 06:11:47;;;;;;;6.45;2.03;;;;;;;15.17;78.92;101520.06;5011636;28;20112;-76
2021/08/24 06:14:13;;;;;;;7.03;2.20;;;;;;;15.22;78.94;101523.56;5011826;28;20484;-76
2021/08/24 06:16:40;;;;;;;3.80;1.73;;;;;;;15.27;78.37;101524.41;5011478;28;20054;-76
2021/08/24 06:19:05;;;;;;;5.15;1.95;;;;;;;15.51;78.22;101525.03;5016900;28;20103;-76
2021/08/24 06:21:31;;;;;;;5.30;1.60;;;;;;;15.57;76.99;101523.19;5008169;28;20492;-76
2021/08/24 06:23:57;;;;;;;4.25;1.85;;;;;;;15.41;77.22;101520.72;5011837;28;20672;-76
2021/08/24 06:26:22;;;;;;;5.70;1.80;;;;;;;15.34;76.82;101536.72;5011558;28;20488;-76
2021/08/24 06:28:48;;;;;;;6.28;1.90;;;;;;;15.38;77.67;101531.38;5011579;28;20037;-76
2021/08/24 06:31:19;;;;;;;4.70;1.58;;;;;;;15.40;77.57;101534.91;5011746;28;20068;-76
2021/08/24 06:33:45;;;;;;;4.18;1.80;;;;;;;15.37;77.25;101535.81;5011868;28;20108;-76
2021/08/24 06:36:12;;;;;;;4.78;1.77;;;;;;;15.10;77.92;101543.16;5011406;28;20034;-76
2021/08/24 06:38:37;;;;;;;7.03;2.42;;;;;;;15.11;78.82;101544.03;5026814;28;20087;-76
2021/08/24 06:41:04;;;;;;;6.40;1.88;;;;;;;15.26;79.03;101543.03;5011758;28;20060;-76
2021/08/24 06:43:29;;;;;;;3.90;1.70;;;;;;;15.48;78.07;101541.94;5011288;28;20199;-76
2021/08/24 06:45:55;;;;;;;3.00;1.70;;;;;;;15.52;77.03;101534.78;5011184;28;20559;-76
2021/08/24 06:48:21;;;;;;;6.53;2.10;;;;;;;15.33;78.01;101542.94;5011267;28;20064;-76
2021/08/24 06:50:47;;;;;;;5.45;2.00;;;;;;;15.27;78.47;101542.13;5010009;28;20542;-76
2021/08/24 06:53:12;;;;;;;6.13;2.20;;;;;;;15.34;78.51;101541.16;5011347;28;20034;-76
2021/08/24 06:55:38;;;;;;;6.07;2.80;;;;;;;15.37;78.57;101541.13;5011266;28;20120;-76
2021/08/24 06:58:05;;;;;;;4.72;1.98;;;;;;;15.52;77.08;101537.44;5011423;28;20041;-76
2021/08/24 07:00:31;;;;;;;5.28;1.80;;;;;;;15.52;77.52;101545.44;5007213;28;20041;-76
2021/08/24 07:02:58;;;;;;;6.03;2.15;;;;;;;15.59;77.36;101538.25;5011450;28;20413;-76
2021/08/24 07:05:26;;;;;;;6.70;2.10;;;;;;;15.69;76.14;101543.50;5010922;28;20045;-76
2021/08/24 07:07:51;;;;;;;4.38;1.90;;;;;;;15.77;75.43;101536.31;5011309;28;20125;-76
2021/08/24 07:10:17;;;;;;;5.57;2.00;;;;;;;15.68;76.11;101547.03;5026339;28;20184;-76
2021/08/24 07:12:43;;;;;;;7.90;2.28;;;;;;;15.76;76.22;101542.53;5011149;28;20471;-76
2021/08/24 07:15:10;;;;;;;6.05;1.73;;;;;;;15.92;75.64;101540.56;5014928;28;20038;-76
2021/08/24 07:17:36;;;;;;;5.55;1.90;;;;;;;15.95;76.00;101542.31;5014889;28;20095;-76
2021/08/24 07:20:04;;;;;;;6.60;2.45;;;;;;;16.19;75.70;101539.34;5015098;28;20477;-76
2021/08/24 07:22:29;;;;;;;4.43;2.08;;;;;;;16.26;74.32;101545.44;5011199;28;20491;-76
2021/08/24 07:24:55;;;;;;;6.18;1.90;;;;;;;16.39;74.16;101535.50;5015198;28;20034;-76
2021/08/24 07:27:21;;;;;;;3.65;2.00;;;;;;;16.23;72.72;101545.50;5014872;28;20540;-75
2021/08/24 07:29:46;;;;;;;5.07;1.70;;;;;;;16.06;73.86;101543.06;5014711;28;20037;-77
2021/08/24 07:32:12;;;;;;;5.38;2.60;;;;;;;16.10;75.24;101544.78;5014959;28;20458;-77
2021/08/24 07:34:38;;;;;;;8.98;3.10;;;;;;;16.26;73.83;101549.91;5010861;28;20409;-76
2021/08/24 07:37:03;;;;;;;6.20;2.88;;;;;;;16.41;73.38;101544.38;5014368;28;20469;-78
2021/08/24 07:39:29;;;;;;;3.35;1.95;;;;;;;16.63;72.21;101550.25;5009177;28;20033;-77
2021/08/24 07:41:55;;;;;;;5.72;2.20;;;;;;;16.91;72.39;101550.75;5014442;28;20034;-77
2021/08/24 07:44:24;;;;;;;10.07;2.10;;;;;;;16.89;70.19;101557.00;5013743;28;20052;-77
2021/08/24 07:46:50;;;;;;;5.45;2.20;;;;;;;16.85;70.57;101558.84;5000724;28;20038;-77
2021/08/24 07:49:16;;;;;;;4.93;2.08;;;;;;;16.86;70.97;101563.28;5011759;28;20037;-77
2021/08/24 07:51:41;;;;;;;4.07;1.90;;;;;;;16.86;71.00;101568.59;5013494;28;20113;-77
2021/08/24 07:54:07;;;;;;;6.25;2.47;;;;;;;16.96;69.96;101570.22;5014343;28;20072;-77
2021/08/24 07:56:32;;;;;;;5.13;1.90;;;;;;;16.98;70.59;101563.09;5014029;28;20061;-77
2021/08/24 07:58:57;;;;;;;5.20;2.40;;;;;;;17.04;70.15;101562.09;5013948;28;20049;-77
2021/08/24 08:01:24;;;;;;;8.93;1.98;;;;;;;17.08;69.78;101564.69;5021037;28;20034;-77
2021/08/24 08:03:49;;;;;;;4.65;2.35;;;;;;;17.11;70.26;101558.44;5015742;28;20034;-77
2021/08/24 08:06:14;;;;;;;5.47;2.10;;;;;;;17.16;69.35;101561.00;5013723;28;20042;-77
2021/08/24 08:08:39;;;;;;;4.40;2.28;;;;;;;17.03;69.41;101561.22;5013844;28;20034;-77
2021/08/24 08:11:05;;;;;;;4.68;2.03;;;;;;;16.92;69.62;101563.16;5013933;28;20442;-77
2021/08/24 08:13:30;;;;;;;6.63;2.10;;;;;;;16.93;70.46;101564.06;5020971;28;20676;-77
2021/08/24 08:15:56;;;;;;;3.83;1.80;;;;;;;17.15;70.45;101576.13;5013629;28;20077;-77
2021/08/24 08:18:22;;;;;;;5.78;2.05;;;;;;;17.22;68.97;101583.13;5013577;28;20037;-77
2021/08/24 08:20:47;;;;;;;4.38;1.95;;;;;;;17.06;69.87;101578.97;5012387;28;20033;-77
2021/08/24 08:23:15;;;;;;;4.03;1.77;;;;;;;17.16;70.05;101585.00;5013659;28;20046;-78
2021/08/24 08:25:41;;;;;;;5.38;1.90;;;;;;;17.35;69.31;101588.28;5012199;28;20033;-77
2021/08/24 08:28:07;;;;;;;7.20;2.10;;;;;;;17.23;69.57;101592.00;5009502;28;20045;-77
2021/08/24 08:30:34;;;;;;;4.22;1.80;;;;;;;17.23;68.73;101589.34;5013543;28;20128;-78
2021/08/24 08:33:03;;;;;;;6.57;1.88;;;;;;;17.28;68.48;101587.47;5012332;28;20531;-77
2021/08/24 08:35:29;;;;;;;3.88;1.75;;;;;;;17.60;68.41;101588.69;5009461;28;20041;-77
2021/08/24 08:37:54;;;;;;;5.70;2.10;;;;;;;17.63;68.19;101592.19;5013359;28;20034;-77
2021/08/24 08:40:36;;;;;;;4.65;1.80;;;;;;;17.66;67.96;101599.28;5016151;28;20485;-77
2021/08/24 08:43:13;;;;;;;6.27;2.20;;;;;;;17.72;68.26;101589.34;5010029;28;20559;-77
2021/08/24 08:45:45;;;;;;;5.35;2.03;;;;;;;17.86;67.26;101591.78;5010605;28;20277;-77
2021/08/24 08:48:23;;;;;;;5.20;1.92;;;;;;;18.21;66.67;101587.53;5013185;28;20038;-77
2021/08/24 08:50:53;;;;;;;4.40;1.83;;;;;;;18.47;65.24;101586.06;5013255;28;20124;-77
2021/08/24 08:53:37;;;;;;;5.20;2.03;;;;;;;18.13;65.06;101584.13;5013152;28;20046;-77
2021/08/24 08:56:17;;;;;;;5.35;1.75;;;;;;;17.89;67.59;101591.75;5009612;28;20432;-77
2021/08/24 08:59:00;;;;;;;5.57;1.65;;;;;;;17.83;66.49;101599.84;5013021;28;20061;-78
2021/08/24 09:01:44;;;;;;;5.55;1.58;;;;;;;18.14;65.17;101600.13;5028230;28;20515;-77
2021/08/24 09:04:16;;;;;;;3.83;1.67;;;;;;;17.90;66.40;101603.28;5010590;28;20346;-77
2021/08/24 09:06:45;;;;;;;4.10;1.60;;;;;;;18.00;66.86;101598.63;5012573;28;20103;-76
2021/08/24 09:09:10;;;;;;;5.38;2.10;;;;;;;18.05;66.93;101607.44;5009635;28;20173;-76
2021/08/24 09:11:43;;;;;;;5.05;2.17;;;;;;;18.61;66.00;101602.69;5019985;28;20116;-78
2021/08/24 09:14:31;;;;;;;4.15;1.67;;;;;;;18.93;63.81;101603.78;5011636;28;20133;-77
2021/08/24 09:17:01;;;;;;;5.60;2.00;;;;;;;19.13;63.92;101604.19;5008696;28;20456;-77
2021/08/24 09:19:51;;;;;;;4.22;1.77;;;;;;;19.27;62.65;101610.06;5008731;28;20034;-78
2021/08/24 09:22:18;;;;;;;3.70;1.90;;;;;;;19.57;62.62;101604.84;5011580;28;20041;-78
2021/08/24 09:24:45;;;;;;;5.45;1.65;;;;;;;19.74;62.18;101599.06;5012642;28;20030;-77
2021/08/24 09:27:19;;;;;;;4.22;1.80;;;;;;;20.10;61.95;101615.91;5012444;28;20041;-77
2021/08/24 09:29:47;;;;;;;3.42;1.48;;;;;;;20.13;60.00;101607.78;5012683;28;20507;-77
2021/08/24 09:32:19;;;;;;;5.15;2.00;;;;;;;20.28;59.23;101606.47;5009900;28;20042;-78
2021/08/24 09:34:47;;;;;;;4.72;1.63;;;;;;;20.28;59.46;101608.28;5012493;28;20125;-77
2021/08/24 09:37:19;;;;;;;5.05;2.00;;;;;;;19.99;60.09;101609.06;5009457;28;20033;-77
2021/08/24 09:39:52;;;;;;;5.47;2.10;;;;;;;19.99;59.02;101603.72;5009733;28;20488;-77
2021/08/24 09:42:33;;;;;;;6.38;1.92;;;;;;;20.03;59.83;101608.09;5011663;28;20044;-77
2021/08/24 09:45:02;;;;;;;5.78;1.98;;;;;;;19.95;59.71;101610.97;5011264;28;20034;-78
2021/08/24 09:47:28;;;;;;;6.75;1.88;;;;;;;19.64;59.94;101598.38;5008433;28;20495;-78
2021/08/24 09:50:02;;;;;;;4.80;1.70;;;;;;;19.76;61.04;101609.75;5009055;28;20030;-78
2021/08/24 09:52:30;;;;;;;3.38;1.60;;;;;;;19.93;59.59;101607.44;5011246;28;20123;-78
2021/08/24 09:55:04;;;;;;;6.97;2.00;;;;;;;19.95;60.41;101613.66;5008901;28;20065;-78
2021/08/24 09:57:46;;;;;;;2.75;1.35;;;;;;;20.20;59.71;101608.50;5012336;28;20080;-78
2021/08/24 10:00:19;;;;;;;3.42;1.75;;;;;;;20.25;59.83;101605.66;5010229;28;20121;-78
2021/08/24 10:02:53;;;;;;;4.50;2.05;;;;;;;20.42;59.21;101606.03;5012147;28;20098;-77
2021/08/24 10:05:21;;;;;;;5.13;2.03;;;;;;;20.57;57.96;101602.94;5012774;28;20056;-77
2021/08/24 10:07:49;;;;;;;4.38;2.00;;;;;;;20.65;58.40;101607.19;5012571;28;20045;-78
2021/08/24 10:10:35;;;;;;;5.07;2.00;;;;;;;20.47;57.30;101612.16;5013311;28;20095;-77
2021/08/24 10:13:25;;;;;;;3.83;1.42;;;;;;;20.23;57.22;101612.88;5013255;28;20041;-77
2021/08/24 10:15:55;;;;;;;3.28;1.50;;;;;;;20.22;58.10;101609.31;5010523;28;20077;-78
2021/08/24 10:18:23;;;;;;;5.45;1.67;;;;;;;20.22;59.28;101609.31;5012043;28;20042;-77
2021/08/24 10:20:56;;;;;;;5.30;1.40;;;;;;;20.20;58.61;101608.50;5011985;28;20128;-78
2021/08/24 10:23:28;;;;;;;6.32;1.83;;;;;;;20.52;57.54;101610.19;5006945;28;20034;-77
2021/08/24 10:25:57;;;;;;;4.38;1.92;;;;;;;20.95;56.31;101598.16;5011388;28;20062;-77
2021/08/24 10:28:27;;;;;;;5.05;1.77;;;;;;;21.30;55.56;101593.44;5026624;28;20550;-77
2021/08/24 10:31:01;;;;;;;4.60;2.13;;;;;;;21.62;54.92;101607.59;5008197;28;20124;-76
2021/08/24 10:33:52;;;;;;;6.05;1.75;;;;;;;21.30;54.16;101605.94;5007938;28;20041;-77
2021/08/24 10:36:26;;;;;;;4.75;1.85;;;;;;;21.12;56.04;101599.41;5010589;28;20038;-77
2021/08/24 10:39:22;;;;;;;6.90;1.80;;;;;;;21.17;54.53;101594.78;5011526;28;20123;-77
2021/08/24 10:42:00;;;;;;;6.55;2.50;;;;;;;21.77;54.55;101599.00;5008106;28;20046;-77
2021/08/24 10:44:27;;;;;;;10.73;3.55;;;;;;;22.59;53.48;101599.53;5007660;28;20121;-77
2021/08/24 10:47:04;;;;;;;6.00;2.10;;;;;;;22.67;50.20;101592.03;5011918;28;20657;-79
2021/08/24 10:49:30;;;;;;;4.03;1.70;;;;;;;22.45;50.70;101591.09;5012253;28;20030;-79
2021/08/24 10:52:10;;;;;;;3.25;1.95;;;;;;;22.53;52.62;101591.66;5016886;28;20494;-78
2021/08/24 10:54:50;;;;;;;3.25;1.60;;;;;;;22.91;52.54;101589.28;5014666;28;20038;-79
2021/08/24 10:57:45;;;;;;;5.90;1.55;;;;;;;22.82;51.74;101589.63;5016683;28;20498;-78
2021/08/24 11:00:38;;;;;;;5.20;1.73;;;;;;;22.50;49.99;101605.25;5014407;28;20080;-78
2021/08/24 11:03:33;;;;;;;3.58;1.48;;;;;;;21.54;52.07;101596.25;5031344;28;20123;-78
2021/08/24 11:05:58;;;;;;;3.95;1.73;;;;;;;21.33;54.47;101603.19;5014818;28;20045;-78
2021/08/24 11:08:41;;;;;;;3.42;1.65;;;;;;;21.41;54.15;101602.03;5016072;28;20029;-78
2021/08/24 11:11:33;;;;;;;4.18;1.73;;;;;;;21.51;53.92;101601.69;5012485;28;20042;-79
2021/08/24 11:14:12;;;;;;;4.88;2.53;;;;;;;21.94;52.94;101602.88;5012940;28;20048;-78
2021/08/24 11:16:42;;;;;;;3.78;1.73;;;;;;;22.21;51.14;101593.78;5015765;28;20045;-78
2021/08/24 11:19:33;;;;;;;6.03;1.80;;;;;;;22.53;49.86;101599.75;5015999;28;20030;-79
2021/08/24 11:22:09;;;;;;;5.68;2.53;;;;;;;23.32;48.65;101594.81;5027779;28;20053;-78
2021/08/24 11:24:47;;;;;;;9.13;2.63;;;;;;;23.38;46.53;101594.53;5020075;28;20037;-79
2021/08/24 11:27:40;;;;;;;6.38;2.88;;;;;;;23.71;46.17;101588.59;5025228;28;20084;-79
2021/08/24 11:30:22;;;;;;;3.83;1.70;;;;;;;23.90;45.84;101580.63;5023381;28;20117;-79
2021/08/24 11:32:55;;;;;;;7.07;2.90;;;;;;;24.19;47.36;101582.84;5018036;28;20046;-79
2021/08/24 11:35:27;;;;;;;4.90;2.60;;;;;;;24.30;47.22;101590.44;5015243;28;20030;-79
2021/08/24 11:38:01;;;;;;;8.45;1.88;;;;;;;23.93;46.40;101592.13;5014680;28;20044;-79